Time;durP1;ratioP1;P1;durP2;ratioP2;P2;SDS_P1;SDS_P2;PMS_P1;PMS_P2;Temp;Humidity;BMP_temperature;BMP_pressure;BME280_temperature;BME280_humidity;BME280_pressure;Samples;Min_cycle;Max_cycle;Signal;HPM_P1;HPM_P2
2021/04/06 00:00:10;;;;;;;9.68;3.20;;;;;;;;;;5018987;28;20436;-80
2021/04/06 00:02:38;;;;;;;8.25;2.80;;;;;;;;;;5019578;28;20370;-81
2021/04/06 00:05:06;;;;;;;11.43;3.20;;;;;;;;;;5016724;28;20406;-81
2021/04/06 00:07:33;;;;;;;9.07;3.10;;;;;;;;;;5017431;28;20471;-80
2021/04/06 00:10:01;;;;;;;10.90;3.15;;;;;;;;;;5009666;28;21470;-80
2021/04/06 00:12:27;;;;;;;10.25;3.45;;;;;;;;;;5008764;28;20789;-81
2021/04/06 00:14:55;;;;;;;10.05;2.90;;;;;;;;;;5009400;28;20375;-80
2021/04/06 00:17:22;;;;;;;8.68;2.83;;;;;;;;;;5008998;28;20375;-80
2021/04/06 00:19:49;;;;;;;9.27;3.15;;;;;;;;;;5009451;28;20390;-80
2021/04/06 00:22:17;;;;;;;8.30;2.95;;;;;;;;;;5009872;28;20402;-80
2021/04/06 00:24:45;;;;;;;9.65;3.30;;;;;;;;;;5009960;28;20383;-81
2021/04/06 00:27:15;;;;;;;10.68;3.30;;;;;;;;;;5009616;28;20414;-81
2021/04/06 00:29:42;;;;;;;10.32;3.30;;;;;;;;;;5011462;28;20388;-82
2021/04/06 00:32:09;;;;;;;7.00;2.90;;;;;;;;;;5013922;28;20444;-80
2021/04/06 00:34:37;;;;;;;7.45;2.88;;;;;;;;;;5014041;28;20386;-79
2021/04/06 00:37:04;;;;;;;8.85;3.33;;;;;;;;;;5013757;28;20473;-81
2021/04/06 00:39:34;;;;;;;9.85;3.38;;;;;;;;;;5013413;28;20379;-81
2021/04/06 00:42:03;;;;;;;9.68;3.30;;;;;;;;;;5013442;28;20375;-82
2021/04/06 00:44:30;;;;;;;9.65;3.38;;;;;;;;;;5012694;28;20371;-80
2021/04/06 00:46:56;;;;;;;9.63;3.40;;;;;;;;;;5012483;28;20956;-82
2021/04/06 00:49:23;;;;;;;11.48;2.88;;;;;;;;;;5011315;28;20386;-80
2021/04/06 00:51:51;;;;;;;11.07;3.25;;;;;;;;;;5013043;28;20441;-81
2021/04/06 00:54:18;;;;;;;10.65;3.10;;;;;;;;;;5010962;28;20386;-81
2021/04/06 00:56:45;;;;;;;10.32;3.78;;;;;;;;;;5011245;28;20386;-82
2021/04/06 00:59:21;;;;;;;12.32;3.28;;;;;;;;;;5012164;28;20875;-82
2021/04/06 01:01:48;;;;;;;10.38;3.28;;;;;;;;;;5011156;28;20390;-82
2021/04/06 01:04:15;;;;;;;10.93;3.80;;;;;;;;;;5012419;28;21004;-81
2021/04/06 01:06:59;;;;;;;9.25;3.33;;;;;;;;;;5012659;28;20438;-81
2021/04/06 01:09:29;;;;;;;8.85;2.85;;;;;;;;;;5010789;28;20391;-82
2021/04/06 01:11:55;;;;;;;10.30;3.20;;;;;;;;;;5010711;28;20379;-81
2021/04/06 01:14:21;;;;;;;11.38;3.58;;;;;;;;;;5011332;28;20466;-81
2021/04/06 01:16:47;;;;;;;10.27;3.55;;;;;;;;;;5012047;28;20387;-81
2021/04/06 01:19:14;;;;;;;9.38;3.28;;;;;;;;;;5010646;28;20382;-80
2021/04/06 01:21:40;;;;;;;10.27;3.28;;;;;;;;;;5012404;28;20406;-82
2021/04/06 01:24:09;;;;;;;9.00;3.63;;;;;;;;;;5012457;28;20501;-81
2021/04/06 01:26:36;;;;;;;9.77;3.47;;;;;;;;;;5011950;28;20448;-81
2021/04/06 01:29:05;;;;;;;9.73;4.00;;;;;;;;;;5011590;28;20379;-80
2021/04/06 01:31:31;;;;;;;7.25;3.55;;;;;;;;;;5010623;28;20383;-80
2021/04/06 01:33:57;;;;;;;11.53;3.97;;;;;;;;;;5010646;28;20468;-80
2021/04/06 01:36:26;;;;;;;9.02;4.07;;;;;;;;;;5011769;28;20390;-81
2021/04/06 01:38:52;;;;;;;9.77;3.88;;;;;;;;;;5011622;28;20375;-82
2021/04/06 01:41:18;;;;;;;11.38;4.22;;;;;;;;;;5010474;28;20450;-81
2021/04/06 01:43:48;;;;;;;9.70;4.60;;;;;;;;;;5011789;28;20363;-81
2021/04/06 01:46:16;;;;;;;10.40;3.90;;;;;;;;;;5010276;28;20378;-80
2021/04/06 01:48:42;;;;;;;9.95;3.90;;;;;;;;;;5011418;28;20741;-81
2021/04/06 01:51:09;;;;;;;9.50;3.97;;;;;;;;;;5011855;28;20383;-82
2021/04/06 01:53:35;;;;;;;11.40;4.20;;;;;;;;;;5011782;28;20490;-81
2021/04/06 01:56:07;;;;;;;10.73;3.90;;;;;;;;;;5011153;28;20437;-81
2021/04/06 01:58:36;;;;;;;10.70;4.88;;;;;;;;;;5009629;28;20785;-80
2021/04/06 02:03:49;;;;;;;9.45;4.25;;;;;;;;;;5011833;28;20410;-80
2021/04/06 02:06:16;;;;;;;8.15;4.00;;;;;;;;;;5010450;28;20389;-81
2021/04/06 02:08:52;;;;;;;8.93;4.10;;;;;;;;;;5010934;28;20390;-81
2021/04/06 02:11:25;;;;;;;10.95;4.13;;;;;;;;;;5011345;28;20379;-81
2021/04/06 02:13:51;;;;;;;8.67;3.97;;;;;;;;;;5011388;28;20371;-81
2021/04/06 02:16:17;;;;;;;8.32;3.80;;;;;;;;;;5011605;28;20458;-80
2021/04/06 02:18:43;;;;;;;9.57;4.28;;;;;;;;;;5009495;28;20804;-82
2021/04/06 02:21:09;;;;;;;9.50;4.38;;;;;;;;;;5009790;28;20711;-80
2021/04/06 02:23:46;;;;;;;8.77;4.50;;;;;;;;;;5011067;28;20376;-81
2021/04/06 02:26:15;;;;;;;9.27;4.43;;;;;;;;;;5011566;28;20372;-81
2021/04/06 02:28:41;;;;;;;9.20;4.60;;;;;;;;;;5010622;28;20414;-81
2021/04/06 02:31:08;;;;;;;10.10;4.20;;;;;;;;;;5011173;28;20378;-81
2021/04/06 02:33:37;;;;;;;9.23;4.43;;;;;;;;;;5010983;28;20861;-80
2021/04/06 02:36:05;;;;;;;11.88;4.50;;;;;;;;;;5012323;28;20383;-81
2021/04/06 02:38:49;;;;;;;8.85;4.63;;;;;;;;;;5011199;28;20399;-81
2021/04/06 02:41:16;;;;;;;8.07;4.00;;;;;;;;;;5011596;28;20405;-82
2021/04/06 02:43:42;;;;;;;8.52;4.28;;;;;;;;;;5010409;28;20382;-80
2021/04/06 02:46:08;;;;;;;8.00;4.43;;;;;;;;;;5012583;28;20387;-80
2021/04/06 02:48:35;;;;;;;10.20;4.80;;;;;;;;;;5013319;28;20375;-81
2021/04/06 02:51:01;;;;;;;8.75;4.57;;;;;;;;;;5012753;28;20368;-80
2021/04/06 02:53:27;;;;;;;12.60;5.10;;;;;;;;;;5011979;28;20399;-81
2021/04/06 02:55:53;;;;;;;8.55;4.70;;;;;;;;;;5011854;28;20449;-80
2021/04/06 02:58:19;;;;;;;7.72;4.20;;;;;;;;;;5010290;28;20860;-81
2021/04/06 03:00:45;;;;;;;14.30;5.05;;;;;;;;;;5010730;28;20375;-82
2021/04/06 03:03:20;;;;;;;12.18;5.20;;;;;;;;;;5009039;28;20817;-83
2021/04/06 03:05:46;;;;;;;11.00;5.78;;;;;;;;;;5010335;28;20385;-81
2021/04/06 03:08:12;;;;;;;10.70;4.78;;;;;;;;;;5009392;28;20409;-81
2021/04/06 03:10:38;;;;;;;12.05;4.80;;;;;;;;;;5010142;28;20367;-81
2021/04/06 03:13:08;;;;;;;9.52;4.43;;;;;;;;;;5010411;28;20873;-81
2021/04/06 03:15:37;;;;;;;10.90;4.68;;;;;;;;;;5010210;28;20384;-80
2021/04/06 03:18:04;;;;;;;9.27;4.95;;;;;;;;;;5009583;28;20371;-80
2021/04/06 03:20:30;;;;;;;9.88;5.00;;;;;;;;;;5009505;28;20383;-81
2021/04/06 03:22:56;;;;;;;11.15;4.97;;;;;;;;;;5010251;28;20383;-81
2021/04/06 03:25:23;;;;;;;10.40;5.35;;;;;;;;;;5010244;28;20406;-81
2021/04/06 03:27:50;;;;;;;11.18;5.28;;;;;;;;;;5009880;28;20403;-80
2021/04/06 03:30:32;;;;;;;10.65;5.13;;;;;;;;;;5010034;28;20441;-80
2021/04/06 03:33:07;;;;;;;10.93;5.50;;;;;;;;;;5010524;28;20379;-81
2021/04/06 03:35:34;;;;;;;11.25;5.70;;;;;;;;;;5008743;28;20398;-80
2021/04/06 03:38:01;;;;;;;11.80;5.60;;;;;;;;;;5009672;28;20869;-81
2021/04/06 03:40:31;;;;;;;12.27;5.95;;;;;;;;;;5009903;28;20524;-80
2021/04/06 03:43:16;;;;;;;12.98;5.68;;;;;;;;;;5009936;28;20374;-81
2021/04/06 03:46:04;;;;;;;11.18;5.63;;;;;;;;;;5008004;28;20399;-80
2021/04/06 03:48:33;;;;;;;12.10;5.93;;;;;;;;;;5009082;28;20441;-80
2021/04/06 03:50:59;;;;;;;11.55;5.72;;;;;;;;;;5009459;28;20386;-81
2021/04/06 03:53:36;;;;;;;12.10;6.30;;;;;;;;;;5008528;28;20383;-80
2021/04/06 03:56:04;;;;;;;11.60;5.97;;;;;;;;;;5009676;28;20470;-80
2021/04/06 03:58:35;;;;;;;11.10;6.35;;;;;;;;;;5009423;28;20374;-82
2021/04/06 04:01:01;;;;;;;13.98;6.75;;;;;;;;;;5009655;28;20453;-80
2021/04/06 04:03:27;;;;;;;11.52;6.05;;;;;;;;;;5008319;28;20466;-80
2021/04/06 04:05:53;;;;;;;9.83;5.87;;;;;;;;;;5009395;28;20932;-80
2021/04/06 04:08:19;;;;;;;13.35;5.97;;;;;;;;;;5008898;28;20542;-81
2021/04/06 04:10:45;;;;;;;11.98;6.40;;;;;;;;;;5008017;28;20394;-81
2021/04/06 04:13:11;;;;;;;12.93;6.68;;;;;;;;;;5008180;28;20379;-80
2021/04/06 04:15:37;;;;;;;9.53;6.03;;;;;;;;;;5009422;28;20355;-80
2021/04/06 04:18:03;;;;;;;9.18;5.97;;;;;;;;;;5007918;28;20892;-81
2021/04/06 04:20:30;;;;;;;11.02;6.32;;;;;;;;;;5009594;28;20379;-81
2021/04/06 04:22:55;;;;;;;10.50;5.75;;;;;;;;;;5009463;28;20774;-80
2021/04/06 04:25:22;;;;;;;14.37;6.40;;;;;;;;;;5008419;28;20476;-81
2021/04/06 04:27:48;;;;;;;11.20;6.20;;;;;;;;;;5009413;28;20403;-81
2021/04/06 04:30:15;;;;;;;10.50;6.13;;;;;;;;;;5010128;28;20458;-80
2021/04/06 04:32:41;;;;;;;11.57;6.43;;;;;;;;;;5008069;28;20967;-80
2021/04/06 04:35:08;;;;;;;10.07;6.20;;;;;;;;;;5009092;28;20371;-82
2021/04/06 04:37:34;;;;;;;9.43;5.78;;;;;;;;;;5007624;28;20411;-82
2021/04/06 04:40:00;;;;;;;11.13;6.43;;;;;;;;;;5007473;28;20789;-83
2021/04/06 04:42:26;;;;;;;11.68;6.35;;;;;;;;;;5008089;28;20391;-82
2021/04/06 04:44:52;;;;;;;12.43;6.25;;;;;;;;;;5009366;28;20438;-79
2021/04/06 04:47:18;;;;;;;11.77;6.07;;;;;;;;;;5007027;28;20810;-80
2021/04/06 04:49:44;;;;;;;11.93;6.28;;;;;;;;;;5007958;28;20410;-80
2021/04/06 04:52:10;;;;;;;11.18;5.55;;;;;;;;;;5009343;28;20379;-80
2021/04/06 04:54:36;;;;;;;11.20;5.97;;;;;;;;;;5009552;28;20386;-81
2021/04/06 04:57:02;;;;;;;13.45;6.53;;;;;;;;;;5008129;28;20383;-81
2021/04/06 04:59:28;;;;;;;10.25;5.60;;;;;;;;;;5009942;28;20375;-82
2021/04/06 05:01:54;;;;;;;12.02;6.68;;;;;;;;;;5009411;28;20779;-80
2021/04/06 05:04:19;;;;;;;12.87;5.70;;;;;;;;;;5009827;28;20483;-81
2021/04/06 05:06:45;;;;;;;9.70;5.68;;;;;;;;;;5008927;28;20418;-81
2021/04/06 05:09:11;;;;;;;10.20;5.60;;;;;;;;;;5007102;28;20482;-81
2021/04/06 05:11:37;;;;;;;10.27;5.53;;;;;;;;;;5008804;28;20458;-81
2021/04/06 05:14:04;;;;;;;10.83;5.70;;;;;;;;;;5008629;28;20368;-81
2021/04/06 05:16:30;;;;;;;11.00;5.85;;;;;;;;;;5012220;28;20386;-81
2021/04/06 05:18:56;;;;;;;8.93;5.22;;;;;;;;;;5012230;28;20379;-81
2021/04/06 05:21:22;;;;;;;10.57;6.00;;;;;;;;;;5012221;28;20379;-80
2021/04/06 05:23:48;;;;;;;10.65;6.03;;;;;;;;;;5012178;28;20386;-81
2021/04/06 05:26:14;;;;;;;10.73;5.88;;;;;;;;;;5012178;28;20376;-81
2021/04/06 05:28:40;;;;;;;10.90;6.15;;;;;;;;;;5011762;28;20386;-81
2021/04/06 05:31:06;;;;;;;10.85;5.97;;;;;;;;;;5012525;28;20379;-80
2021/04/06 05:33:32;;;;;;;13.63;5.97;;;;;;;;;;5011908;28;20429;-81
2021/04/06 05:35:58;;;;;;;10.05;6.00;;;;;;;;;;5012128;28;20383;-80
2021/04/06 05:38:24;;;;;;;10.95;6.47;;;;;;;;;;5010271;28;20403;-81
2021/04/06 05:40:50;;;;;;;11.00;7.37;;;;;;;;;;5010681;28;20386;-81
2021/04/06 05:43:18;;;;;;;11.60;6.95;;;;;;;;;;5012363;28;20375;-81
2021/04/06 05:45:46;;;;;;;11.35;6.30;;;;;;;;;;5012458;28;20407;-81
2021/04/06 05:48:14;;;;;;;12.77;6.90;;;;;;;;;;5010974;28;20411;-81
2021/04/06 05:50:43;;;;;;;13.55;6.65;;;;;;;;;;5011668;28;20383;-81
2021/04/06 05:53:09;;;;;;;9.93;5.93;;;;;;;;;;5011835;28;20371;-81
2021/04/06 05:55:35;;;;;;;10.80;6.00;;;;;;;;;;5010525;28;20465;-81
2021/04/06 05:58:01;;;;;;;10.47;5.70;;;;;;;;;;5013922;28;20375;-80
2021/04/06 06:00:27;;;;;;;11.25;5.85;;;;;;;;;;5015281;28;20398;-81
2021/04/06 06:02:53;;;;;;;7.70;4.85;;;;;;;;;;5014776;28;20892;-81
2021/04/06 06:05:19;;;;;;;7.93;5.07;;;;;;;;;;5014614;28;20448;-81
2021/04/06 06:07:46;;;;;;;9.13;4.60;;;;;;;;;;5011664;28;20517;-81
2021/04/06 06:10:28;;;;;;;8.07;4.82;;;;;;;;;;5010506;28;20379;-81
2021/04/06 06:12:54;;;;;;;8.00;4.88;;;;;;;;;;5010811;28;20905;-81
2021/04/06 06:15:20;;;;;;;10.57;4.93;;;;;;;;;;5008958;28;20750;-80
2021/04/06 06:18:03;;;;;;;8.05;5.15;;;;;;;;;;5008416;28;20405;-82
2021/04/06 06:20:29;;;;;;;9.15;5.00;;;;;;;;;;5010467;28;20466;-82
2021/04/06 06:22:55;;;;;;;7.97;4.82;;;;;;;;;;5010711;28;20398;-81
2021/04/06 06:25:21;;;;;;;7.40;4.47;;;;;;;;;;5008698;28;20734;-81
2021/04/06 06:27:48;;;;;;;9.48;5.32;;;;;;;;;;5008817;28;21251;-81
2021/04/06 06:30:23;;;;;;;8.93;5.13;;;;;;;;;;5010311;28;20379;-82
2021/04/06 06:32:49;;;;;;;8.90;5.10;;;;;;;;;;5010627;28;20462;-81
2021/04/06 06:35:33;;;;;;;9.32;5.15;;;;;;;;;;5013223;28;20377;-81
2021/04/06 06:38:13;;;;;;;10.02;4.75;;;;;;;;;;5027034;28;20378;-81
2021/04/06 06:40:39;;;;;;;9.45;4.30;;;;;;;;;;5030082;28;20392;-81
2021/04/06 06:43:05;;;;;;;8.77;5.00;;;;;;;;;;5029865;28;20822;-81
2021/04/06 06:45:35;;;;;;;9.03;4.87;;;;;;;;;;5028736;28;20369;-81
2021/04/06 06:48:01;;;;;;;7.97;4.90;;;;;;;;;;5028249;28;20598;-81
2021/04/06 06:50:27;;;;;;;11.55;5.05;;;;;;;;;;5028373;28;20382;-82
2021/04/06 06:52:57;;;;;;;9.00;4.97;;;;;;;;;;5029854;28;20377;-82
2021/04/06 06:55:24;;;;;;;8.73;4.90;;;;;;;;;;5028043;28;20897;-81
2021/04/06 06:58:00;;;;;;;11.07;4.72;;;;;;;;;;5028402;28;20464;-82
2021/04/06 07:00:26;;;;;;;7.15;4.30;;;;;;;;;;5031099;28;20378;-81
2021/04/06 07:02:52;;;;;;;10.97;4.93;;;;;;;;;;5030510;28;20412;-82
2021/04/06 07:05:20;;;;;;;7.93;5.28;;;;;;;;;;5030215;28;20370;-81
2021/04/06 07:07:58;;;;;;;11.18;5.22;;;;;;;;;;4984498;28;1278248;-82
2021/04/06 07:10:28;;;;;;;7.73;4.77;;;;;;;;;;5027636;28;20740;-81
2021/04/06 07:13:04;;;;;;;8.07;4.32;;;;;;;;;;5027618;28;20389;-83
2021/04/06 07:15:31;;;;;;;8.43;4.70;;;;;;;;;;5029779;28;20386;-83
2021/04/06 07:18:00;;;;;;;7.55;4.32;;;;;;;;;;5028454;28;20381;-82
2021/04/06 07:20:27;;;;;;;9.43;4.60;;;;;;;;;;5029258;28;20895;-83
2021/04/06 07:22:55;;;;;;;7.88;4.18;;;;;;;;;;5030363;28;20393;-82
2021/04/06 07:25:21;;;;;;;8.68;4.97;;;;;;;;;;5030537;28;20470;-83
2021/04/06 07:27:48;;;;;;;9.88;4.88;;;;;;;;;;5030233;28;20409;-82
2021/04/06 07:30:14;;;;;;;10.40;4.78;;;;;;;;;;5030088;28;20382;-83
2021/04/06 07:32:41;;;;;;;9.60;5.10;;;;;;;;;;5029090;28;20381;-83
2021/04/06 07:35:10;;;;;;;9.32;5.47;;;;;;;;;;5029174;28;20381;-83
2021/04/06 07:37:40;;;;;;;9.70;5.03;;;;;;;;;;5029651;28;20373;-83
2021/04/06 07:40:09;;;;;;;9.45;4.80;;;;;;;;;;5030634;28;20385;-82
2021/04/06 07:42:36;;;;;;;9.90;5.30;;;;;;;;;;5030527;28;20419;-83
2021/04/06 07:45:04;;;;;;;8.68;5.07;;;;;;;;;;5030617;28;21491;-82
2021/04/06 07:47:48;;;;;;;9.77;4.90;;;;;;;;;;5029611;28;20941;-81
2021/04/06 07:50:14;;;;;;;8.57;5.50;;;;;;;;;;5030466;28;20384;-82
2021/04/06 07:52:40;;;;;;;12.73;5.72;;;;;;;;;;5030919;28;20448;-82
2021/04/06 07:55:07;;;;;;;10.07;5.28;;;;;;;;;;5030270;28;20919;-82
2021/04/06 07:57:44;;;;;;;9.75;5.05;;;;;;;;;;5024304;28;20480;-88
2021/04/06 08:00:11;;;;;;;10.67;5.20;;;;;;;;;;5030394;28;20381;-88
2021/04/06 08:02:44;;;;;;;9.50;4.95;;;;;;;;;;5030440;28;20393;-87
2021/04/06 08:05:17;;;;;;;12.10;5.40;;;;;;;;;;5029196;28;20424;-87
2021/04/06 08:07:43;;;;;;;11.40;5.47;;;;;;;;;;5028571;28;20441;-87
2021/04/06 08:10:09;;;;;;;10.25;4.68;;;;;;;;;;5029534;28;20416;-88
2021/04/06 08:12:36;;;;;;;10.55;4.93;;;;;;;;;;5031144;28;20385;-89
2021/04/06 08:15:05;;;;;;;9.90;4.35;;;;;;;;;;5031120;28;20460;-86
2021/04/06 08:17:31;;;;;;;9.93;4.70;;;;;;;;;;5025827;28;20497;-86
2021/04/06 08:20:08;;;;;;;11.70;4.73;;;;;;;;;;5031227;28;20433;-81
2021/04/06 08:22:52;;;;;;;14.73;6.57;;;;;;;;;;5025699;28;20408;-86
2021/04/06 08:25:19;;;;;;;8.55;4.65;;;;;;;;;;5024330;28;20413;-81
2021/04/06 08:27:46;;;;;;;10.00;4.95;;;;;;;;;;5029122;28;20401;-81
2021/04/06 08:30:31;;;;;;;9.63;4.80;;;;;;;;;;5030192;28;20381;-81
2021/04/06 08:35:43;;;;;;;11.52;4.53;;;;;;;;;;5029083;28;20413;-80
2021/04/06 08:38:36;;;;;;;13.80;4.90;;;;;;;;;;5016601;28;20420;-81
2021/04/06 08:41:13;;;;;;;12.00;4.97;;;;;;;;;;5024792;28;20420;-80
2021/04/06 08:43:39;;;;;;;14.82;5.75;;;;;;;;;;5027544;28;20424;-82
2021/04/06 08:46:14;;;;;;;13.27;5.20;;;;;;;;;;5025930;28;20396;-81
2021/04/06 08:48:43;;;;;;;12.87;5.00;;;;;;;;;;5034106;28;20397;-80
2021/04/06 08:51:28;;;;;;;10.15;4.68;;;;;;;;;;5031254;28;20393;-82
2021/04/06 08:53:56;;;;;;;12.23;5.13;;;;;;;;;;5029627;28;20408;-82
2021/04/06 08:56:23;;;;;;;12.20;5.13;;;;;;;;;;5032167;28;20901;-80
2021/04/06 08:58:49;;;;;;;11.93;4.97;;;;;;;;;;5031452;28;20371;-81
2021/04/06 09:01:15;;;;;;;14.73;7.07;;;;;;;;;;5038306;28;20723;-82
2021/04/06 09:03:41;;;;;;;20.33;7.90;;;;;;;;;;5032583;28;20384;-79
2021/04/06 09:06:08;;;;;;;20.67;11.30;;;;;;;;;;5034014;28;20393;-81
2021/04/06 09:08:48;;;;;;;26.25;15.10;;;;;;;;;;5031866;28;20433;-79
2021/04/06 09:11:19;;;;;;;13.52;5.88;;;;;;;;;;5030625;28;20381;-82
2021/04/06 09:13:46;;;;;;;11.93;4.93;;;;;;;;;;5030650;28;20423;-84
2021/04/06 09:16:12;;;;;;;11.30;4.82;;;;;;;;;;5031894;28;20428;-83
2021/04/06 09:18:38;;;;;;;13.80;4.95;;;;;;;;;;5025338;28;21119;-80
2021/04/06 09:21:06;;;;;;;10.63;4.57;;;;;;;;;;5024786;28;20392;-81
2021/04/06 09:23:33;;;;;;;12.82;4.85;;;;;;;;;;5027191;28;20488;-83
2021/04/06 09:25:59;;;;;;;13.38;5.20;;;;;;;;;;5028492;28;21049;-80
2021/04/06 09:28:25;;;;;;;10.60;4.32;;;;;;;;;;5031316;28;20408;-80
2021/04/06 09:30:52;;;;;;;10.15;4.20;;;;;;;;;;5031420;28;20377;-84
2021/04/06 09:33:19;;;;;;;9.65;4.13;;;;;;;;;;5031114;28;20791;-83
2021/04/06 09:35:50;;;;;;;9.77;4.15;;;;;;;;;;5032648;28;20370;-83
2021/04/06 09:38:20;;;;;;;11.82;4.07;;;;;;;;;;5032268;28;20456;-83
2021/04/06 09:40:46;;;;;;;15.30;4.70;;;;;;;;;;5032290;28;20378;-82
2021/04/06 09:43:12;;;;;;;11.17;4.27;;;;;;;;;;5032299;28;20442;-82
2021/04/06 09:45:38;;;;;;;13.68;4.30;;;;;;;;;;5032443;28;20875;-83
2021/04/06 09:48:05;;;;;;;15.07;4.90;;;;;;;;;;5032705;28;20459;-82
2021/04/06 09:50:32;;;;;;;11.47;4.00;;;;;;;;;;5032559;28;20373;-83
2021/04/06 09:52:59;;;;;;;15.00;4.35;;;;;;;;;;5033498;28;20384;-83
2021/04/06 09:55:26;;;;;;;9.63;4.30;;;;;;;;;;5032873;28;20382;-82
2021/04/06 09:57:54;;;;;;;10.98;4.15;;;;;;;;;;5033780;28;20459;-82
2021/04/06 10:00:22;;;;;;;11.90;4.72;;;;;;;;;;5031984;28;20386;-84
2021/04/06 10:03:08;;;;;;;11.20;4.38;;;;;;;;;;5031575;28;20365;-85
2021/04/06 10:05:35;;;;;;;12.00;4.18;;;;;;;;;;5032363;28;20374;-83
2021/04/06 10:08:01;;;;;;;13.40;4.45;;;;;;;;;;5030945;28;20432;-83
2021/04/06 10:10:32;;;;;;;11.80;4.03;;;8.80;99.90;;;;;;5031453;28;20373;-84
2021/04/06 10:12:59;;;;;;;13.15;4.30;;;8.60;99.90;;;;;;5031218;28;20377;-84
2021/04/06 10:15:28;;;;;;;12.30;4.00;;;8.80;99.90;;;;;;5031313;28;20378;-82
2021/04/06 10:17:55;;;;;;;11.40;3.75;;;9.10;99.90;;;;;;5031435;28;20396;-86
2021/04/06 10:20:24;;;;;;;9.70;3.70;;;9.30;99.90;;;;;;5031883;28;20436;-82
2021/04/06 10:22:57;;;;;;;9.00;3.60;;;9.30;99.70;;;;;;5031806;28;20381;-82
2021/04/06 10:25:25;;;;;;;12.35;3.95;;;9.20;97.00;;;;;;5030031;28;20476;-81
2021/04/06 10:27:55;;;;;;;9.30;3.30;;;9.20;98.90;;;;;;5030722;28;20411;-80
2021/04/06 10:30:35;;;;;;;12.25;3.85;;;9.40;98.10;;;;;;5031539;28;20899;-87
2021/04/06 10:33:07;;;;;;;12.73;4.03;;;9.70;97.00;;;;;;5031406;28;20922;-83
2021/04/06 10:35:41;;;;;;;10.75;4.18;;;9.20;96.10;;;;;;5031342;28;20373;-84
2021/04/06 10:38:16;;;;;;;12.07;4.18;;;8.70;97.50;;;;;;5025091;28;20439;-83
2021/04/06 10:40:43;;;;;;;13.02;3.90;;;8.10;99.30;;;;;;5029601;28;20405;-85
2021/04/06 10:43:15;;;;;;;10.60;3.95;;;7.90;99.90;;;;;;5031243;28;20412;-82
2021/04/06 10:45:50;;;;;;;10.50;3.73;;;7.90;99.30;;;;;;5030602;28;20385;-82
2021/04/06 10:48:22;;;;;;;12.55;4.10;;;8.20;99.90;;;;;;5026411;28;20500;-81
2021/04/06 10:50:51;;;;;;;8.45;3.63;;;8.60;98.10;;;;;;5012485;28;20406;-84
2021/04/06 10:53:24;;;;;;;5.90;3.38;;;8.80;98.00;;;;;;5024117;28;20386;-82
2021/04/06 10:55:56;;;;;;;11.52;3.40;;;8.60;96.80;;;;;;5027854;28;21164;-83
2021/04/06 10:58:31;;;;;;;10.43;3.77;;;8.60;96.00;;;;;;5021970;28;20411;-85
2021/04/06 11:01:12;;;;;;;9.88;5.15;;;8.60;98.40;;;;;;5027152;28;20443;-82
2021/04/06 11:03:49;;;;;;;16.65;3.58;;;8.60;97.70;;;;;;5028016;28;20385;-84
2021/04/06 11:06:18;;;;;;;6.75;2.33;;;;;;;;;;5025044;28;20977;-80
2021/04/06 11:08:45;;;;;;;5.43;2.65;;;;;;;;;;5028775;28;20571;-81
2021/04/06 11:11:30;;;;;;;5.63;2.20;;;;;;;;;;5028854;28;20390;-82
2021/04/06 11:13:58;;;;;;;8.45;2.83;;;;;;;;;;5028458;28;20370;-80
2021/04/06 11:16:24;;;;;;;7.60;3.58;;;;;;;;;;5029297;28;20424;-80
2021/04/06 11:18:57;;;;;;;7.30;3.47;;;;;;;;;;5028937;28;20791;-82
2021/04/06 11:21:24;;;;;;;7.30;3.13;;;;;;;;;;5036271;28;20874;-80
2021/04/06 11:23:50;;;;;;;9.13;3.25;;;;;;;;;;5029549;28;20550;-82
2021/04/06 11:26:16;;;;;;;7.97;3.03;;;;;;;;;;5029481;28;20735;-84
2021/04/06 11:28:42;;;;;;;6.75;2.95;;;;;;;;;;5026905;28;20397;-84
2021/04/06 11:31:08;;;;;;;9.27;3.33;;;;;;;;;;5028342;28;20484;-81
2021/04/06 11:33:34;;;;;;;7.90;3.10;;;;;;;;;;5029342;28;20374;-83
2021/04/06 11:36:00;;;;;;;11.32;3.65;;;7.30;99.90;;;;;;5028374;28;20378;-82
2021/04/06 11:38:26;;;;;;;8.07;3.50;;;7.40;99.90;;;;;;5030096;28;20381;-83
2021/04/06 11:40:51;;;;;;;9.53;3.47;;;7.80;99.90;;;;;;5029229;28;20463;-82
2021/04/06 11:43:17;;;;;;;11.63;3.50;;;7.80;99.90;;;;;;5028848;28;20378;-82
2021/04/06 11:45:42;;;;;;;6.65;2.63;;;8.10;99.90;;;;;;5030379;28;20860;-82
2021/04/06 11:48:08;;;;;;;9.73;3.00;;;8.30;99.90;;;;;;5030482;28;20401;-81
2021/04/06 11:50:34;;;;;;;9.87;3.20;;;8.70;99.90;;;;;;5030413;28;20421;-83
2021/04/06 11:52:59;;;;;;;5.68;2.47;;;8.90;95.90;;;;;;5029701;28;20962;-83
2021/04/06 11:55:25;;;;;;;8.23;2.55;;;8.90;93.10;;;;;;5027032;28;20820;-83
2021/04/06 11:57:51;;;;;;;6.30;2.47;;;8.70;92.30;;;;;;5028095;28;20498;-81
2021/04/06 12:00:18;;;;;;;15.33;2.60;;;8.90;94.00;;;;;;5028440;28;20389;-82
2021/04/06 12:02:43;;;;;;;7.67;2.53;;;9.10;93.40;;;;;;5026902;28;20488;-82
2021/04/06 12:05:10;;;;;;;6.47;2.50;;;9.10;89.40;;;;;;5029153;28;20451;-83
2021/04/06 12:07:35;;;;;;;9.43;3.42;;;8.70;91.50;;;;;;5022100;28;20413;-84
2021/04/06 12:10:02;;;;;;;8.85;3.00;;;8.50;92.80;;;;;;5025730;28;20385;-83
2021/04/06 12:12:28;;;;;;;7.88;2.90;;;8.20;94.30;;;;;;5028039;28;20401;-82
2021/04/06 12:14:54;;;;;;;7.30;2.70;;;8.10;95.30;;;;;;5028538;28;20421;-82
2021/04/06 12:17:20;;;;;;;8.43;2.70;;;8.20;92.50;;;;;;5025024;28;20793;-84
2021/04/06 12:19:46;;;;;;;11.43;2.73;;;8.30;93.30;;;;;;5029709;28;20790;-84
2021/04/06 12:22:11;;;;;;;7.70;2.93;;;8.20;93.60;;;;;;5026748;28;20414;-83
2021/04/06 12:24:37;;;;;;;12.48;3.30;;;8.00;93.20;;;;;;5028285;28;20408;-83
2021/04/06 12:27:03;;;;;;;8.00;2.42;;;7.70;95.10;;;;;;5032836;28;20405;-82
2021/04/06 12:29:28;;;;;;;7.38;2.70;;;7.70;96.00;;;;;;5033181;28;20389;-83
2021/04/06 12:31:54;;;;;;;5.53;2.27;;;7.70;95.50;;;;;;5031697;28;20469;-84
2021/04/06 12:34:19;;;;;;;6.30;2.60;;;7.70;93.80;;;;;;5039214;28;20908;-81
2021/04/06 12:36:45;;;;;;;5.95;2.17;;;7.60;93.70;;;;;;5032293;28;20468;-84
2021/04/06 12:39:11;;;;;;;11.10;2.58;;;7.70;92.70;;;;;;5030908;28;20420;-81
2021/04/06 12:41:36;;;;;;;6.20;2.47;;;7.60;91.90;;;;;;5030013;28;20502;-83
2021/04/06 12:44:02;;;;;;;6.97;2.57;;;7.40;93.00;;;;;;5030834;28;20381;-85
2021/04/06 12:46:28;;;;;;;8.95;2.58;;;7.10;94.00;;;;;;5029734;28;20416;-82
2021/04/06 12:48:54;;;;;;;6.55;2.30;;;7.30;93.70;;;;;;5031433;28;20409;-84
2021/04/06 12:51:19;;;;;;;10.07;3.03;;;7.40;93.70;;;;;;5031757;28;20432;-84
2021/04/06 12:53:45;;;;;;;7.90;2.60;;;7.80;94.10;;;;;;5033795;28;20397;-84
2021/04/06 12:56:10;;;;;;;9.50;2.90;;;7.90;93.10;;;;;;5032420;28;20417;-81
2021/04/06 12:58:36;;;;;;;8.57;2.50;;;7.80;92.40;;;;;;5033299;28;20385;-85
2021/04/06 13:01:02;;;;;;;8.52;2.53;;;7.70;93.60;;;;;;5031281;28;20378;-86
2021/04/06 13:03:28;;;;;;;7.88;2.80;;;7.70;95.00;;;;;;5031134;28;20982;-84
2021/04/06 13:05:55;;;;;;;7.90;2.30;;;7.70;96.70;;;;;;5032267;28;20389;-84
2021/04/06 13:08:21;;;;;;;5.15;2.22;;;7.90;95.00;;;;;;5032424;28;20429;-84
2021/04/06 13:10:49;;;;;;;7.17;2.30;;;8.00;95.30;;;;;;5031807;28;20803;-85
2021/04/06 13:13:15;;;;;;;4.93;2.00;;;8.00;94.30;;;;;;5033489;28;20825;-84
2021/04/06 13:15:41;;;;;;;5.50;2.07;;;8.30;92.10;;;;;;5039463;28;20391;-84
2021/04/06 13:18:07;;;;;;;4.30;2.03;;;8.60;90.90;;;;;;5035395;28;20392;-85
2021/04/06 13:20:33;;;;;;;5.95;1.90;;;8.60;90.40;;;;;;5029476;28;20401;-83
2021/04/06 13:22:59;;;;;;;5.67;2.20;;;8.60;89.80;;;;;;5032367;28;20388;-80
2021/04/06 13:25:25;;;;;;;6.73;2.13;;;8.60;90.90;;;;;;5030838;28;20388;-80
2021/04/06 13:27:56;;;;;;;5.65;2.10;;;8.50;90.50;;;;;;5030773;28;20428;-91
2021/04/06 13:30:24;;;;;;;6.95;2.45;;;8.20;92.90;;;;;;5032961;28;20381;-84
2021/04/06 13:32:50;;;;;;;7.13;2.42;;;7.50;98.90;;;;;;5031294;28;20400;-82
2021/04/06 13:35:16;;;;;;;5.60;2.50;;;6.80;99.90;;;;;;5031412;28;20870;-83
2021/04/06 13:37:42;;;;;;;7.93;2.95;;;6.30;99.90;;;;;;5013741;28;20395;-83
2021/04/06 13:40:10;;;;;;;7.15;2.70;;;6.00;99.90;;;;;;5010171;28;20383;-82
2021/04/06 13:42:37;;;;;;;7.40;2.80;;;5.70;99.90;;;;;;5026822;28;20373;-83
2021/04/06 13:45:12;;;;;;;9.55;3.20;;;5.50;99.90;;;;;;5029730;28;20377;-84
2021/04/06 13:47:38;;;;;;;8.55;3.00;;;5.40;99.90;;;;;;5015276;28;20403;-83
2021/04/06 13:50:08;;;;;;;7.53;2.67;;;5.50;99.90;;;;;;5013038;28;20880;-83
2021/04/06 13:52:35;;;;;;;6.57;2.85;;;5.70;99.90;;;;;;5024980;28;20397;-83
2021/04/06 13:55:01;;;;;;;7.50;2.35;;;6.00;99.90;;;;;;5028886;28;20382;-85
2021/04/06 13:57:26;;;;;;;8.30;2.30;;;6.30;99.90;;;;;;5024090;28;20391;-85
2021/04/06 13:59:52;;;;;;;8.30;2.10;;;6.50;99.90;;;;;;5013067;28;20433;-82
2021/04/06 14:02:17;;;;;;;4.50;2.00;;;6.70;99.90;;;;;;5015650;28;20389;-84
2021/04/06 14:04:43;;;;;;;7.57;2.50;;;6.80;99.90;;;;;;5023329;28;20391;-82
2021/04/06 14:07:09;;;;;;;6.18;2.10;;;6.80;99.90;;;;;;5013732;28;21378;-83
2021/04/06 14:09:36;;;;;;;5.65;2.47;;;6.50;99.90;;;;;;5031806;28;20419;-84
2021/04/06 14:12:02;;;;;;;8.00;2.30;;;6.00;99.90;;;;;;5012638;28;20455;-82
2021/04/06 14:14:27;;;;;;;7.78;2.80;;;5.70;99.90;;;;;;5011858;28;20474;-82
2021/04/06 14:16:53;;;;;;;6.80;3.00;;;;;;;;;;5012661;28;20838;-82